Time;durP1;ratioP1;P1;durP2;ratioP2;P2;SDS_P1;SDS_P2;PMS_P1;PMS_P2;Temp;Humidity;BMP_temperature;BMP_pressure;BME280_temperature;BME280_humidity;BME280_pressure;Samples;Min_cycle;Max_cycle;Signal;HPM_P1;HPM_P2
2024/01/21 00:00:26;;;;;;;15.45;9.85;;;;;;;-2.33;100.00;102432.34;5035347;28;20029;-81
2024/01/21 00:02:53;;;;;;;13.35;9.55;;;;;;;-3.67;100.00;102227.03;5052846;28;20039;-82
2024/01/21 00:05:27;;;;;;;15.30;9.63;;;;;;;-3.40;100.00;102288.16;5052765;28;20024;-81
2024/01/21 00:08:01;;;;;;;15.85;10.05;;;;;;;-3.09;100.00;102337.53;5052687;28;20078;-82
2024/01/21 00:10:26;;;;;;;14.40;9.18;;;;;;;-3.24;100.00;102317.06;5052513;28;20118;-82
2024/01/21 00:12:52;;;;;;;15.88;10.13;;;;;;;-2.80;100.00;102403.75;5052626;28;20025;-82
2024/01/21 00:15:26;;;;;;;13.82;9.75;;;;;;;-3.33;100.00;102325.31;5052864;28;20464;-81
2024/01/21 00:17:52;;;;;;;13.70;9.10;;;;;;;-2.92;100.00;102398.47;5052480;28;20032;-81
2024/01/21 00:20:30;;;;;;;14.27;9.32;;;;;;;-2.99;100.00;102399.19;5052698;28;20029;-81
2024/01/21 00:23:02;;;;;;;13.75;9.20;;;;;;;-4.00;100.00;102233.19;5052177;28;20373;-81
2024/01/21 00:25:28;;;;;;;16.42;9.50;;;;;;;-3.29;100.00;102352.31;5052335;28;20399;-81
2024/01/21 00:27:53;;;;;;;13.48;9.18;;;;;;;-3.06;100.00;102387.25;5052668;28;20100;-82
2024/01/21 00:32:54;;;;;;;13.50;9.13;;;;;;;-3.18;100.00;102376.09;3128062;26;20578;-82
2024/01/21 00:35:19;;;;;;;13.05;8.40;;;;;;;-3.18;100.00;102378.63;5012086;28;20030;-82
2024/01/21 00:41:42;;;;;;;13.60;8.52;;;;;;;-3.70;100.00;102290.94;5012738;28;20100;-81
2024/01/21 00:44:22;;;;;;;12.38;8.23;;;;;;;-4.40;100.00;102178.56;5013296;28;20041;-83
2024/01/21 00:46:47;;;;;;;12.38;8.73;;;;;;;-3.84;100.00;102290.66;5012726;28;20033;-81
2024/01/21 00:52:38;;;;;;;15.32;8.88;;;;;;;-5.00;100.00;102136.16;5012911;28;20125;-83
2024/01/21 00:55:03;;;;;;;12.32;7.97;;;;;;;-3.97;100.00;102297.97;5013012;28;20022;-82
2024/01/21 00:57:32;;;;;;;14.35;8.40;;;;;;;-4.45;100.00;102223.00;4994942;28;20502;-83
2024/01/21 01:00:04;;;;;;;12.05;8.30;;;;;;;-3.58;100.00;102363.53;5012394;28;20018;-83
2024/01/21 01:02:30;;;;;;;12.95;8.65;;;;;;;-3.53;100.00;102367.88;4994631;28;20034;-84
2024/01/21 01:04:55;;;;;;;13.00;7.95;;;;;;;-3.85;100.00;102311.69;5012910;28;20363;-81
2024/01/21 01:07:21;;;;;;;11.25;8.20;;;;;;;-3.57;100.00;102353.47;5012632;28;20548;-82
2024/01/21 01:09:46;;;;;;;13.05;8.73;;;;;;;-3.63;100.00;102335.69;5012667;28;20061;-81
2024/01/21 01:12:12;;;;;;;13.32;8.45;;;;;;;-3.66;100.00;102334.75;5012476;28;20030;-84
2024/01/21 01:14:40;;;;;;;13.65;8.90;;;;;;;-3.59;100.00;102336.59;5012564;28;20446;-82
2024/01/21 01:17:06;;;;;;;13.38;8.50;;;;;;;-3.58;100.00;102329.06;5012282;28;20022;-84
2024/01/21 01:19:32;;;;;;;11.60;7.88;;;;;;;-3.59;100.00;102318.94;5012814;28;20026;-81
2024/01/21 01:21:57;;;;;;;13.15;8.18;;;;;;;-3.57;100.00;102312.22;5012514;28;20092;-82
2024/01/21 01:24:22;;;;;;;12.13;7.90;;;;;;;-3.58;100.00;102305.47;5012662;28;20022;-81
2024/01/21 01:26:47;;;;;;;12.25;7.55;;;;;;;-3.58;100.00;102302.94;5012459;28;20113;-83
2024/01/21 01:29:13;;;;;;;11.65;7.43;;;;;;;-3.68;100.00;102273.31;5012375;28;20054;-83
2024/01/21 01:31:38;;;;;;;11.25;6.93;;;;;;;-3.55;100.00;102301.31;5012372;28;20029;-83
2024/01/21 01:34:03;;;;;;;13.18;7.63;;;;;;;-3.63;100.00;102277.63;5012108;28;20022;-82
2024/01/21 01:36:29;;;;;;;11.55;7.70;;;;;;;-3.52;100.00;102288.78;5012299;28;20026;-82
2024/01/21 01:38:54;;;;;;;11.57;6.90;;;;;;;-3.82;100.00;102227.63;5019354;28;20405;-82
2024/01/21 01:41:19;;;;;;;10.93;7.47;;;;;;;-3.50;100.00;102277.03;5014244;28;20041;-81
2024/01/21 01:43:45;;;;;;;12.85;7.57;;;;;;;-3.50;98.52;102261.03;5032102;28;20040;-84
2024/01/21 01:46:10;;;;;;;13.57;7.40;;;;;;;-3.47;97.43;102261.06;5032004;28;20103;-82
2024/01/21 01:48:36;;;;;;;10.25;6.63;;;;;;;-3.49;98.23;102257.66;5035414;28;20474;-82
2024/01/21 01:51:03;;;;;;;10.52;7.15;;;;;;;-3.72;98.04;102213.50;5035550;28;20029;-84
2024/01/21 01:53:30;;;;;;;11.60;7.28;;;;;;;-3.71;98.04;102203.44;5035319;28;20500;-83
2024/01/21 01:55:56;;;;;;;14.05;7.97;;;;;;;-3.70;98.46;102189.97;5035578;28;20035;-83
2024/01/21 01:58:23;;;;;;;10.93;6.97;;;;;;;-3.52;98.00;102224.81;5035522;28;20037;-82
2024/01/21 02:00:49;;;;;;;10.50;6.72;;;;;;;-3.36;96.32;102241.91;5035319;28;20117;-82
2024/01/21 02:03:15;;;;;;;11.90;7.10;;;;;;;-3.47;95.94;102225.72;5035247;28;20108;-81
2024/01/21 02:05:40;;;;;;;11.95;6.90;;;;;;;-3.38;95.67;102243.56;5035170;28;20029;-83
2024/01/21 02:08:06;;;;;;;9.95;6.25;;;;;;;-3.45;96.21;102219.00;5035270;28;20065;-83
2024/01/21 02:10:31;;;;;;;11.43;6.53;;;;;;;-3.40;95.21;102217.44;5035201;28;20025;-82
2024/01/21 02:12:57;;;;;;;11.38;6.75;;;;;;;-3.42;94.56;102219.09;5035213;28;20033;-83
2024/01/21 02:15:23;;;;;;;10.65;6.60;;;;;;;-3.55;95.55;102200.31;5035033;28;20108;-82
2024/01/21 02:17:48;;;;;;;9.38;6.55;;;;;;;-3.41;94.35;102215.72;5034937;28;20040;-81
2024/01/21 02:20:16;;;;;;;10.98;7.20;;;;;;;-3.49;96.01;102204.66;5035073;28;20018;-83
2024/01/21 02:22:41;;;;;;;10.88;6.72;;;;;;;-3.64;95.97;102181.66;5034813;28;20548;-84
2024/01/21 02:25:08;;;;;;;9.82;6.40;;;;;;;-3.46;95.18;102210.59;5034757;28;20022;-82
2024/01/21 02:27:34;;;;;;;10.38;5.70;;;;;;;-3.56;94.59;102188.53;5034937;28;20021;-83
2024/01/21 02:29:59;;;;;;;9.48;6.32;;;;;;;-3.50;96.99;102182.75;5034967;28;20437;-82
2024/01/21 02:32:25;;;;;;;11.77;6.32;;;;;;;-3.38;96.33;102190.50;5034828;28;20100;-84
2024/01/21 02:34:50;;;;;;;10.60;6.50;;;;;;;-3.33;94.75;102185.56;5034373;28;20025;-83
2024/01/21 02:37:16;;;;;;;9.18;6.07;;;;;;;-3.26;96.65;102187.31;5034751;28;20029;-81
2024/01/21 02:39:41;;;;;;;11.60;6.40;;;;;;;-3.19;94.59;102182.41;5034490;28;20048;-81
2024/01/21 02:42:06;;;;;;;10.82;6.43;;;;;;;-3.11;94.26;102174.09;5034696;28;20028;-82
2024/01/21 02:44:32;;;;;;;9.98;6.05;;;;;;;-3.02;94.96;102164.13;5033357;28;20026;-81
2024/01/21 02:46:57;;;;;;;10.55;6.15;;;;;;;-3.06;93.95;102140.47;5016784;28;20110;-82
2024/01/21 02:49:24;;;;;;;11.10;5.50;;;;;;;-2.85;93.06;102169.41;5034334;28;20021;-82
2024/01/21 02:51:50;;;;;;;8.05;5.35;;;;;;;-2.79;91.07;102165.28;5034231;28;20026;-82
2024/01/21 02:54:15;;;;;;;10.52;5.57;;;;;;;-2.71;92.12;102155.28;5034650;28;20537;-81
2024/01/21 02:56:40;;;;;;;9.65;5.85;;;;;;;-2.65;91.66;102152.84;5034423;28;20145;-81
2024/01/21 03:00:12;;;;;;;9.35;5.43;;;;;;;-2.59;90.35;102147.84;5233888;23;20111;-81
2024/01/21 03:02:37;;;;;;;8.70;4.78;;;;;;;-2.52;88.97;102146.25;5033104;28;20038;-82
2024/01/21 03:05:03;;;;;;;9.13;4.88;;;;;;;-2.41;87.54;102149.75;5034339;28;20132;-83
2024/01/21 03:07:29;;;;;;;8.27;5.07;;;;;;;-2.36;87.84;102145.56;5033765;28;20025;-82
2024/01/21 03:09:54;;;;;;;9.35;5.07;;;;;;;-2.33;87.38;102131.28;5034200;28;20018;-82
2024/01/21 03:12:22;;;;;;;7.63;4.43;;;;;;;-2.95;88.58;102017.66;5034083;28;20018;-82
2024/01/21 03:14:47;;;;;;;8.93;5.05;;;;;;;-2.29;86.39;102127.09;5032931;28;20079;-82
2024/01/21 03:17:13;;;;;;;8.25;4.88;;;;;;;-2.78;86.63;102044.78;5034175;28;20021;-81
2024/01/21 03:19:38;;;;;;;9.27;5.00;;;;;;;-2.34;87.05;102114.41;5033763;28;20420;-81
2024/01/21 03:22:03;;;;;;;7.72;4.60;;;;;;;-2.37;87.20;102111.84;5033799;28;20056;-82
2024/01/21 03:24:30;;;;;;;6.93;4.63;;;;;;;-2.56;86.62;102079.59;5033903;28;20029;-82
2024/01/21 03:26:56;;;;;;;9.75;5.28;;;;;;;-2.53;86.42;102096.50;5033839;28;20041;-81
2024/01/21 03:29:21;;;;;;;8.68;4.75;;;;;;;-2.74;87.99;102071.81;5033628;28;20484;-81
2024/01/21 03:31:46;;;;;;;9.65;4.95;;;;;;;-2.52;88.31;102113.38;5033641;28;20033;-82
2024/01/21 03:34:12;;;;;;;9.65;4.93;;;;;;;-2.58;88.86;102103.16;5033639;28;20040;-83
2024/01/21 03:36:37;;;;;;;9.40;5.00;;;;;;;-2.53;88.67;102099.03;5033437;28;20493;-80
2024/01/21 03:39:03;;;;;;;9.48;5.53;;;;;;;-2.51;87.68;102105.78;5031728;28;20041;-80
2024/01/21 03:41:28;;;;;;;9.05;5.63;;;;;;;-2.82;88.04;102048.13;5033464;28;20030;-84
2024/01/21 03:43:54;;;;;;;8.90;5.18;;;;;;;-2.49;88.24;102103.28;5033346;28;20461;-81
2024/01/21 03:46:19;;;;;;;8.30;5.10;;;;;;;-2.68;87.64;102060.06;5031862;28;20396;-83
2024/01/21 03:48:45;;;;;;;8.35;4.70;;;;;;;-2.45;89.64;102089.84;5033399;28;20413;-81
2024/01/21 03:51:10;;;;;;;8.07;5.13;;;;;;;-2.45;89.52;102087.31;5031415;28;20038;-81
2024/01/21 03:53:39;;;;;;;9.20;5.25;;;;;;;-2.64;89.87;102050.88;5033281;28;20384;-81
2024/01/21 03:56:05;;;;;;;8.50;5.10;;;;;;;-2.35;89.59;102089.13;5031840;28;20033;-81
2024/01/21 03:58:30;;;;;;;9.27;4.90;;;;;;;-2.46;89.59;102065.34;5033037;28;20044;-81
2024/01/21 04:00:56;;;;;;;8.73;5.03;;;;;;;-2.50;89.97;102033.28;5030666;28;20485;-81
2024/01/21 04:03:21;;;;;;;9.55;5.47;;;;;;;-2.25;89.35;102070.66;5032780;28;20457;-80
2024/01/21 04:05:47;;;;;;;9.35;4.78;;;;;;;-2.36;89.69;102036.78;5033083;28;20021;-81
2024/01/21 04:08:12;;;;;;;8.63;5.20;;;;;;;-2.36;89.25;102031.75;5032759;28;20037;-79
2024/01/21 04:10:39;;;;;;;7.22;4.63;;;;;;;-2.37;88.67;102040.16;5033091;28;20044;-80
2024/01/21 04:13:04;;;;;;;7.78;4.57;;;;;;;-2.24;88.55;102049.59;5032885;28;20123;-80
2024/01/21 04:15:30;;;;;;;8.32;4.63;;;;;;;-2.24;88.25;102052.13;5032765;28;20060;-80
2024/01/21 04:17:55;;;;;;;7.40;4.43;;;;;;;-2.31;88.76;102035.16;5032586;28;20026;-80
2024/01/21 04:20:20;;;;;;;7.13;4.15;;;;;;;-2.28;89.69;102042.78;5032718;28;20436;-79
2024/01/21 04:22:46;;;;;;;8.07;4.47;;;;;;;-2.49;89.20;102017.28;5032666;28;20032;-81
2024/01/21 04:25:11;;;;;;;8.15;4.82;;;;;;;-2.29;89.63;102053.75;5014958;28;20029;-79
2024/01/21 04:27:36;;;;;;;7.45;4.50;;;;;;;-2.25;89.80;102054.63;5032695;28;20026;-81
2024/01/21 04:30:02;;;;;;;8.15;4.88;;;;;;;-2.27;90.36;102046.16;5032264;28;20037;-79
2024/01/21 04:32:27;;;;;;;8.90;4.90;;;;;;;-2.27;89.50;102028.44;5032486;28;20030;-80
2024/01/21 04:34:53;;;;;;;8.32;4.40;;;;;;;-2.13;90.21;102035.34;5032322;28;20068;-80
2024/01/21 04:37:18;;;;;;;7.32;4.43;;;;;;;-2.23;88.67;101994.78;5032541;28;20029;-81
2024/01/21 04:39:44;;;;;;;8.45;4.70;;;;;;;-2.00;88.96;102008.44;5031192;28;20037;-80
2024/01/21 04:42:09;;;;;;;8.50;4.57;;;;;;;-2.03;88.27;101976.38;5032485;28;20033;-82
2024/01/21 04:47:10;;;;;;;7.18;4.80;;;;;;;-1.69;89.96;101968.13;5143437;23;20109;-81
2024/01/21 04:49:35;;;;;;;9.18;4.72;;;;;;;-1.82;87.79;101935.16;4992750;28;20035;-79
2024/01/21 04:52:01;;;;;;;7.88;4.97;;;;;;;-1.58;87.94;101962.28;4992891;28;20101;-79
2024/01/21 04:54:26;;;;;;;8.25;4.53;;;;;;;-1.48;86.49;101961.50;4992551;28;20034;-79
2024/01/21 04:56:52;;;;;;;8.45;4.32;;;;;;;-1.42;87.11;101949.72;4992914;28;20027;-80
2024/01/21 04:59:17;;;;;;;7.40;4.50;;;;;;;-1.60;86.80;101910.78;4992812;28;20026;-82
2024/01/21 05:01:42;;;;;;;7.65;5.03;;;;;;;-1.32;86.10;101946.38;4959329;28;20092;-80
2024/01/21 05:04:08;;;;;;;8.93;5.30;;;;;;;-1.26;86.13;101949.78;4992962;28;20398;-81
2024/01/21 05:06:34;;;;;;;8.93;5.20;;;;;;;-1.32;86.47;101929.47;4990972;28;20176;-82
2024/01/21 05:08:59;;;;;;;8.75;5.05;;;;;;;-1.13;85.77;101938.00;4992863;28;20085;-81
2024/01/21 05:11:24;;;;;;;10.15;5.00;;;;;;;-1.07;86.06;101947.31;4993027;28;20489;-80
2024/01/21 05:13:50;;;;;;;9.02;5.35;;;;;;;-1.31;86.46;101895.69;4992675;28;20034;-81
2024/01/21 05:16:15;;;;;;;9.27;5.35;;;;;;;-0.96;85.80;101951.56;4992829;28;20089;-82
2024/01/21 05:18:40;;;;;;;8.65;5.70;;;;;;;-1.07;86.36;101921.97;4992668;28;20050;-81
2024/01/21 05:21:06;;;;;;;10.13;6.03;;;;;;;-0.85;85.92;101963.41;4992640;28;20113;-81
2024/01/21 05:23:34;;;;;;;9.65;5.85;;;;;;;-0.80;84.89;101956.66;4996247;28;20148;-81
2024/01/21 05:25:59;;;;;;;9.65;5.72;;;;;;;-1.05;85.06;101910.97;4996579;28;20030;-80
2024/01/21 05:28:25;;;;;;;10.82;5.95;;;;;;;-0.84;84.20;101930.47;4996429;28;20023;-81
2024/01/21 05:30:50;;;;;;;9.65;6.07;;;;;;;-0.67;83.21;101933.03;4995149;28;20371;-80
2024/01/21 05:33:15;;;;;;;10.10;6.38;;;;;;;-0.61;83.93;101935.53;4995001;28;20027;-80
2024/01/21 05:35:41;;;;;;;10.68;6.20;;;;;;;-0.69;83.59;101901.72;4996070;28;20105;-80
2024/01/21 05:38:06;;;;;;;12.52;6.40;;;;;;;-0.96;83.68;101867.91;4996514;28;20027;-80
2024/01/21 05:40:31;;;;;;;11.07;6.80;;;;;;;-0.56;83.18;101920.34;4996112;28;20059;-80
2024/01/21 05:42:57;;;;;;;10.38;6.80;;;;;;;-0.45;83.02;101933.88;4996353;28;20544;-80
2024/01/21 05:45:22;;;;;;;11.60;6.38;;;;;;;-0.43;83.77;101944.88;4995908;28;20421;-80
2024/01/21 05:47:48;;;;;;;10.57;7.03;;;;;;;-0.64;82.43;101890.75;4996105;28;20030;-80
2024/01/21 05:50:13;;;;;;;10.10;6.25;;;;;;;-0.75;84.62;101883.97;4995954;28;20081;-80
2024/01/21 05:52:38;;;;;;;9.63;6.32;;;;;;;-0.57;83.98;101899.22;4995850;28;20081;-80
2024/01/21 05:55:04;;;;;;;11.30;6.63;;;;;;;-0.44;84.21;101928.78;4995931;28;20026;-81
2024/01/21 05:57:30;;;;;;;11.55;6.63;;;;;;;-0.48;83.95;101914.44;4995951;28;20390;-80
2024/01/21 05:59:55;;;;;;;11.18;6.30;;;;;;;-0.38;83.08;101921.19;4995897;28;20034;-81
2024/01/21 06:02:21;;;;;;;10.50;6.22;;;;;;;-0.59;83.31;101883.13;4995853;28;20026;-80
2024/01/21 06:04:46;;;;;;;12.02;6.60;;;;;;;-0.55;82.50;101886.53;4995859;28;20031;-82
2024/01/21 06:07:11;;;;;;;10.95;6.93;;;;;;;-0.31;81.80;101912.72;4995525;28;20037;-81
2024/01/21 06:09:37;;;;;;;10.98;6.75;;;;;;;-0.30;83.49;101919.47;4995897;28;20077;-80
2024/01/21 06:12:02;;;;;;;11.20;6.93;;;;;;;-0.28;83.74;101901.72;4995775;28;20023;-81
2024/01/21 06:14:28;;;;;;;11.32;6.63;;;;;;;-0.44;81.57;101888.19;4995780;28;20046;-81
2024/01/21 06:16:53;;;;;;;10.95;6.28;;;;;;;-0.32;81.77;101905.09;4995789;28;20026;-81
2024/01/21 06:19:19;;;;;;;12.77;6.47;;;;;;;-0.37;82.58;101891.59;4995677;28;20064;-81
2024/01/21 06:21:44;;;;;;;11.50;6.28;;;;;;;-0.16;81.92;101928.78;4995373;28;20110;-82
2024/01/21 06:24:12;;;;;;;12.52;7.40;;;;;;;-0.13;81.23;101933.84;4995571;28;20058;-82
2024/01/21 06:26:40;;;;;;;10.15;6.43;;;;;;;-0.11;82.09;101938.06;4995799;28;20772;-82
2024/01/21 06:29:06;;;;;;;10.77;6.68;;;;;;;-0.08;81.26;101938.09;4978081;28;20045;-81
2024/01/21 06:31:31;;;;;;;10.65;6.63;;;;;;;-0.20;82.59;101919.47;4995529;28;20364;-82
2024/01/21 06:33:57;;;;;;;9.32;6.00;;;;;;;-0.06;82.55;101938.09;4994207;28;20026;-81
2024/01/21 06:36:25;;;;;;;11.65;6.55;;;;;;;-0.82;80.60;101786.75;4995066;28;20478;-82
2024/01/21 06:38:51;;;;;;;12.60;6.13;;;;;;;-0.33;80.55;101876.34;4995304;28;20018;-81
2024/01/21 06:41:16;;;;;;;9.27;6.25;;;;;;;0.05;79.16;101951.59;4995356;28;20389;-81
2024/01/21 06:43:42;;;;;;;10.27;6.43;;;;;;;0.07;79.71;101928.75;4995447;28;20022;-81
2024/01/21 06:46:08;;;;;;;11.13;6.75;;;;;;;-0.04;79.67;101932.16;4995302;28;20046;-81
2024/01/21 06:48:36;;;;;;;10.38;7.13;;;;;;;0.14;78.31;101941.44;4995109;28;20030;-83
2024/01/21 06:51:08;;;;;;;10.85;6.25;;;;;;;0.14;79.73;101936.34;4995018;28;20172;-84
2024/01/21 06:53:33;;;;;;;12.02;7.13;;;;;;;0.19;77.83;101952.41;4995253;28;20383;-82
2024/01/21 06:56:04;;;;;;;10.55;6.25;;;;;;;0.18;79.38;101942.25;4994955;28;20030;-83
2024/01/21 06:58:30;;;;;;;10.52;6.32;;;;;;;0.18;78.12;101940.56;4993690;28;20109;-84
2024/01/21 07:00:55;;;;;;;10.68;6.55;;;;;;;0.24;77.98;101939.72;4995011;28;20486;-83
2024/01/21 07:03:20;;;;;;;10.55;7.00;;;;;;;0.24;77.84;101930.41;4994949;28;20033;-82
2024/01/21 07:05:46;;;;;;;12.10;6.22;;;;;;;0.28;76.94;101919.38;4994745;28;20028;-84
2024/01/21 07:08:11;;;;;;;11.05;6.55;;;;;;;0.22;76.95;101900.78;4977489;28;20467;-83
2024/01/21 07:10:36;;;;;;;9.75;6.13;;;;;;;0.31;76.97;101898.22;4977396;28;20076;-84
2024/01/21 07:13:02;;;;;;;10.85;6.22;;;;;;;-0.04;75.58;101827.19;4994716;28;20058;-83
2024/01/21 07:15:28;;;;;;;10.48;6.38;;;;;;;0.34;73.98;101888.03;4994734;28;20100;-84
2024/01/21 07:17:53;;;;;;;9.73;6.07;;;;;;;0.15;74.97;101838.16;4994164;28;20030;-83
2024/01/21 07:20:19;;;;;;;9.90;6.07;;;;;;;0.36;73.51;101878.69;4994591;28;20049;-84
2024/01/21 07:22:45;;;;;;;9.65;5.63;;;;;;;0.26;74.40;101869.44;4994233;28;20026;-82
2024/01/21 07:25:14;;;;;;;9.77;6.22;;;;;;;0.38;73.89;101879.53;4994521;28;20026;-85
2024/01/21 07:27:40;;;;;;;9.80;6.22;;;;;;;-0.33;74.96;101766.38;4976921;28;20081;-84
2024/01/21 07:30:23;;;;;;;9.60;5.97;;;;;;;-0.91;73.72;101678.59;4994318;28;20026;-84
2024/01/21 07:32:52;;;;;;;10.63;6.05;;;;;;;-0.63;74.09;101737.69;4994147;28;20069;-84
2024/01/21 07:35:23;;;;;;;8.98;5.78;;;;;;;-1.06;73.00;101696.38;4994286;28;20377;-84
2024/01/21 07:37:55;;;;;;;;;;;;;;;0.24;75.07;101899.91;4993549;28;20026;-84
2024/01/21 07:40:20;;;;;;;9.98;5.88;;;;;;;0.23;73.18;101888.06;4993659;28;20358;-81
2024/01/21 07:42:46;;;;;;;8.93;5.75;;;;;;;-0.09;72.34;101836.53;4994473;28;20105;-81
2024/01/21 07:45:14;;;;;;;8.80;5.82;;;;;;;0.14;73.16;101862.69;4993954;28;20026;-80
2024/01/21 07:47:40;;;;;;;9.80;5.53;;;;;;;0.23;72.15;101890.59;4993790;28;20085;-81
2024/01/21 07:50:06;;;;;;;10.23;6.20;;;;;;;-0.04;74.38;101857.66;4993642;28;20062;-83
2024/01/21 07:52:34;;;;;;;10.85;6.53;;;;;;;0.05;74.28;101895.75;4993697;28;20085;-90
2024/01/21 07:54:59;;;;;;;10.55;6.03;;;;;;;0.15;73.84;101932.97;4993691;28;20533;-83
2024/01/21 07:57:25;;;;;;;9.80;5.75;;;;;;;0.01;73.75;101904.22;4993527;28;20033;-84
2024/01/21 07:59:50;;;;;;;9.60;5.75;;;;;;;0.20;74.13;101922.81;4976627;28;20081;-83
2024/01/21 08:02:16;;;;;;;10.63;6.28;;;;;;;0.04;74.21;101932.16;4976591;28;20038;-83
2024/01/21 08:04:45;;;;;;;11.10;5.85;;;;;;;0.25;73.57;101949.03;4993448;28;20097;-83
2024/01/21 08:07:10;;;;;;;8.82;5.40;;;;;;;0.11;74.11;101940.59;4993718;28;20034;-82
2024/01/21 08:09:35;;;;;;;9.18;5.65;;;;;;;-0.05;73.62;101929.63;4993145;28;20101;-84
2024/01/21 08:12:01;;;;;;;9.50;5.78;;;;;;;-0.03;74.92;101936.38;4993357;28;20109;-84
2024/01/21 08:14:26;;;;;;;10.05;5.72;;;;;;;0.17;75.50;101956.66;4993377;28;20035;-87
2024/01/21 08:16:53;;;;;;;9.60;5.50;;;;;;;0.19;74.87;101959.19;4993305;28;20033;-82
2024/01/21 08:19:20;;;;;;;8.30;5.25;;;;;;;0.53;75.54;101983.69;4992000;28;20034;-83
2024/01/21 08:21:46;;;;;;;8.45;5.20;;;;;;;0.48;74.02;101946.41;4993291;28;20458;-83
2024/01/21 08:24:12;;;;;;;10.43;5.70;;;;;;;0.68;73.70;101959.88;4992898;28;20034;-84
2024/01/21 08:26:38;;;;;;;10.13;5.88;;;;;;;0.69;71.81;101943.81;5070342;23;20513;-84
2024/01/21 08:29:03;;;;;;;9.43;5.80;;;;;;;0.92;72.89;101969.13;5032772;28;20126;-84
2024/01/21 08:31:29;;;;;;;10.20;5.72;;;;;;;0.42;72.89;101878.69;5032630;28;20440;-85
2024/01/21 08:33:54;;;;;;;8.15;5.05;;;;;;;0.73;72.63;101926.84;5012625;28;20184;-84
2024/01/21 08:36:32;;;;;;;9.07;6.05;;;;;;;0.66;73.59;101910.75;5032696;28;20052;-82
2024/01/21 08:39:38;;;;;;;8.90;5.85;;;;;;;1.05;73.00;101958.03;5032422;28;20017;-87
2024/01/21 08:42:07;;;;;;;10.35;5.53;;;;;;;1.10;73.27;101975.81;5080447;23;20359;-81
2024/01/21 08:44:40;;;;;;;10.27;6.50;;;;;;;0.78;73.99;101914.94;4992641;28;20105;-80
2024/01/21 08:47:12;;;;;;;9.73;5.60;;;;;;;0.69;75.48;101897.19;4993130;28;20022;-81
2024/01/21 08:49:37;;;;;;;9.23;5.63;;;;;;;0.98;76.82;101927.53;4993081;28;20382;-81
2024/01/21 08:52:02;;;;;;;9.25;5.63;;;;;;;0.90;76.73;101906.41;4993121;28;20022;-81
2024/01/21 08:58:45;;;;;;;9.00;5.53;;;;;;;1.43;78.93;101970.50;4995516;28;20529;-83
2024/01/21 09:01:11;;;;;;;8.57;5.63;;;;;;;0.58;79.19;101800.66;4997000;28;20034;-82
2024/01/21 09:03:36;;;;;;;8.48;5.32;;;;;;;0.33;77.41;101740.69;4997077;28;20029;-80
2024/01/21 09:06:41;;;;;;;9.15;5.47;;;;;;;1.65;79.64;101958.47;5016686;28;20029;-81
2024/01/21 09:09:19;;;;;;;8.98;5.25;;;;;;;0.46;81.52;101765.16;5016350;28;20033;-81
2024/01/21 09:11:51;;;;;;;9.73;5.90;;;;;;;1.23;84.01;101890.09;5039163;23;20055;-82
2024/01/21 09:14:17;;;;;;;10.30;5.63;;;;;;;1.56;86.67;101958.53;5087046;23;20058;-82
2024/01/21 09:16:42;;;;;;;9.52;5.68;;;;;;;1.65;87.42;101986.47;5036250;28;20064;-82
2024/01/21 09:19:08;;;;;;;10.05;6.38;;;;;;;1.15;88.62;101910.47;5036090;28;20080;-81
2024/01/21 09:21:34;;;;;;;9.90;5.50;;;;;;;1.65;90.16;102006.00;5036244;28;20029;-81
2024/01/21 09:24:03;;;;;;;9.43;5.78;;;;;;;1.61;91.12;101995.00;5035917;28;20046;-80
2024/01/21 09:26:29;;;;;;;12.50;6.07;;;;;;;1.56;92.41;101984.00;5035893;28;20031;-82
2024/01/21 09:28:54;;;;;;;9.25;6.03;;;;;;;1.67;92.65;101991.53;5035917;28;20104;-80
2024/01/21 09:31:20;;;;;;;11.02;6.15;;;;;;;1.73;93.92;102000.00;5036130;28;20528;-78
2024/01/21 09:33:45;;;;;;;10.02;6.05;;;;;;;1.80;95.44;101988.06;5035968;28;20017;-81
2024/01/21 09:36:11;;;;;;;9.65;5.65;;;;;;;1.91;95.13;102009.19;5051343;28;20160;-82
2024/01/21 09:38:36;;;;;;;9.75;6.28;;;;;;;1.93;95.82;102015.13;5035848;28;20018;-82
2024/01/21 09:41:13;;;;;;;10.20;6.22;;;;;;;1.89;96.49;102022.81;5035479;28;20473;-82
2024/01/21 09:43:42;;;;;;;8.50;5.60;;;;;;;1.83;97.41;102016.03;5035497;28;20036;-79
2024/01/21 09:46:13;;;;;;;9.57;6.10;;;;;;;1.59;98.93;101989.06;5035631;28;20492;-78
2024/01/21 09:48:39;;;;;;;9.23;5.75;;;;;;;1.44;99.57;101973.91;5035769;28;20083;-81
2024/01/21 09:51:06;;;;;;;10.40;6.20;;;;;;;1.43;100.00;101952.69;5035644;28;20025;-80
2024/01/21 09:53:32;;;;;;;8.95;6.35;;;;;;;1.73;100.00;102022.06;5035097;28;20029;-80
2024/01/21 09:56:05;;;;;;;8.80;6.10;;;;;;;1.76;100.00;102034.75;5033787;28;20101;-80
2024/01/21 09:58:53;;;;;;;9.63;6.22;;;;;;;1.76;100.00;102027.13;5035302;28;20045;-78
2024/01/21 10:01:19;;;;;;;11.45;6.20;;;;;;;1.78;100.00;102016.97;5035134;28;20037;-79
2024/01/21 10:03:45;;;;;;;9.77;6.00;;;;;;;1.80;100.00;102016.06;5035143;28;20052;-79
2024/01/21 10:06:11;;;;;;;10.30;6.18;;;;;;;1.69;100.00;101983.06;5035323;28;20080;-80
2024/01/21 10:08:38;;;;;;;10.15;6.57;;;;;;;1.89;100.00;101994.78;5034729;28;20021;-81
2024/01/21 10:11:04;;;;;;;11.13;6.40;;;;;;;1.71;100.00;101971.16;5035115;28;20029;-81
2024/01/21 10:13:42;;;;;;;9.02;6.20;;;;;;;1.63;100.00;101938.97;5035005;28;20103;-81
2024/01/21 10:16:09;;;;;;;9.32;6.00;;;;;;;2.14;100.00;102005.59;5034741;28;20049;-82
2024/01/21 10:18:36;;;;;;;9.48;6.15;;;;;;;2.18;100.00;102004.72;5034733;28;20040;-80
2024/01/21 10:21:05;;;;;;;10.02;6.75;;;;;;;2.23;100.00;102005.50;5033702;28;20061;-81
2024/01/21 10:23:32;;;;;;;9.52;6.43;;;;;;;1.96;100.00;101938.66;5034939;28;20560;-83
2024/01/21 10:25:58;;;;;;;9.65;6.38;;;;;;;2.28;100.00;101980.84;5034923;28;20104;-82
2024/01/21 10:28:23;;;;;;;9.48;6.57;;;;;;;2.34;100.00;101969.72;5034862;28;20029;-81
2024/01/21 10:30:49;;;;;;;8.82;6.22;;;;;;;2.24;100.00;101939.22;5034931;28;20026;-83
2024/01/21 10:33:14;;;;;;;9.57;6.72;;;;;;;2.40;100.00;101974.75;5034768;28;20025;-81
2024/01/21 10:35:40;;;;;;;11.23;6.53;;;;;;;2.20;100.00;101926.56;5034696;28;20045;-83
2024/01/21 10:38:13;;;;;;;10.23;6.00;;;;;;;2.43;100.00;101972.16;5034373;28;20029;-82
2024/01/21 10:40:44;;;;;;;9.77;6.57;;;;;;;2.41;100.00;101959.44;5034352;28;20484;-83
2024/01/21 10:43:16;;;;;;;;;;;;;;;2.52;100.00;101959.31;5034939;28;20550;-80
2024/01/21 10:45:45;;;;;;;10.43;6.57;;;;;;;2.35;100.00;101933.16;5034846;28;19924;-80
2024/01/21 10:48:13;;;;;;;10.63;6.50;;;;;;;2.52;100.00;101949.97;5050370;28;20025;-80
2024/01/21 10:50:40;;;;;;;11.35;7.40;;;;;;;2.59;100.00;101955.84;5034252;28;20040;-82
2024/01/21 10:53:08;;;;;;;9.93;6.22;;;;;;;2.62;100.00;101947.31;5034805;28;20053;-81
2024/01/21 10:55:36;;;;;;;11.15;6.90;;;;;;;2.57;100.00;101921.88;5034412;28;20018;-82
2024/01/21 10:58:01;;;;;;;10.50;7.20;;;;;;;2.27;100.00;101883.16;5034514;28;20116;-81
2024/01/21 11:00:27;;;;;;;10.55;7.18;;;;;;;2.52;100.00;101910.88;5034561;28;20113;-79
2024/01/21 11:03:25;;;;;;;10.25;6.60;;;;;;;2.77;100.00;101931.81;5034348;28;20426;-81
2024/01/21 11:06:01;;;;;;;9.88;6.63;;;;;;;2.64;100.00;101903.06;5034305;28;20056;-81
2024/01/21 11:08:27;;;;;;;10.52;6.32;;;;;;;2.59;100.00;101898.03;5034339;28;20370;-79
2024/01/21 11:11:08;;;;;;;9.27;6.50;;;;;;;2.88;100.00;101946.13;5034238;28;20025;-81
2024/01/21 11:13:47;;;;;;;11.00;6.87;;;;;;;2.99;100.00;101952.78;5034082;28;20034;-80
2024/01/21 11:16:25;;;;;;;9.55;6.65;;;;;;;3.04;100.00;101951.00;5032001;28;20384;-81
2024/01/21 11:18:51;;;;;;;10.15;6.18;;;;;;;2.88;100.00;101923.16;5033970;28;20065;-80
2024/01/21 11:21:20;;;;;;;9.68;6.50;;;;;;;3.12;100.00;101956.84;5033659;28;20496;-81
2024/01/21 11:23:58;;;;;;;9.38;6.20;;;;;;;2.91;100.00;101914.63;5048631;28;20033;-81
2024/01/21 11:26:23;;;;;;;10.95;5.95;;;;;;;3.21;100.00;101964.38;5033466;28;20030;-82
2024/01/21 11:28:49;;;;;;;9.50;6.28;;;;;;;3.13;100.00;101935.56;5033763;28;20030;-82
2024/01/21 11:31:19;;;;;;;8.80;6.25;;;;;;;3.13;100.00;101931.31;5033569;28;20461;-82
2024/01/21 11:34:01;;;;;;;8.88;6.15;;;;;;;3.31;100.00;101947.22;5033918;28;20026;-84
2024/01/21 11:36:27;;;;;;;9.73;6.57;;;;;;;3.27;100.00;101937.94;5033591;28;20033;-81
2024/01/21 11:38:53;;;;;;;9.98;6.00;;;;;;;3.32;100.00;101931.88;5033540;28;20029;-81